createdAt,value
2023-09-08T00:02:26.833Z,14.40
2023-09-08T00:04:54.709Z,12.07
2023-09-08T00:07:22.041Z,11.13
2023-09-08T00:09:49.181Z,14.10
2023-09-08T00:12:16.346Z,15.37
2023-09-08T00:14:43.696Z,13.23
2023-09-08T00:17:10.806Z,14.07
2023-09-08T00:19:38.036Z,14.38
2023-09-08T00:22:07.446Z,13.63
2023-09-08T00:24:35.263Z,13.13
2023-09-08T00:27:02.502Z,11.48
2023-09-08T00:29:29.732Z,13.45
2023-09-08T00:31:57.036Z,12.27
2023-09-08T00:34:24.058Z,15.32
2023-09-08T00:36:52.226Z,13.30
2023-09-08T00:39:19.418Z,12.15
2023-09-08T00:41:46.469Z,14.43
2023-09-08T00:44:13.628Z,13.77
2023-09-08T00:46:41.515Z,11.20
2023-09-08T00:49:10.283Z,13.23
2023-09-08T00:51:39.210Z,10.95
2023-09-08T00:54:07.686Z,12.30
2023-09-08T00:56:37.264Z,14.52
2023-09-08T00:59:05.429Z,15.20
2023-09-08T01:01:32.814Z,11.60
2023-09-08T01:03:59.868Z,13.13
2023-09-08T01:06:28.417Z,13.15
2023-09-08T01:08:56.457Z,13.15
2023-09-08T01:11:25.092Z,14.65
2023-09-08T01:13:52.045Z,12.50
2023-09-08T01:16:19.256Z,12.60
2023-09-08T01:18:49.731Z,15.57
2023-09-08T01:22:03.590Z,14.10
2023-09-08T01:24:58.142Z,12.15
2023-09-08T01:27:26.748Z,14.93
2023-09-08T01:29:55.457Z,12.77
2023-09-08T01:32:23.115Z,11.90
2023-09-08T01:34:50.530Z,12.75
2023-09-08T01:37:17.537Z,12.30
2023-09-08T01:39:44.475Z,11.20
2023-09-08T01:42:11.468Z,12.70
2023-09-08T01:44:38.529Z,12.85
2023-09-08T01:47:05.599Z,16.02
2023-09-08T01:49:32.582Z,12.35
2023-09-08T01:51:59.624Z,14.07
2023-09-08T01:54:26.730Z,11.80
2023-09-08T01:56:53.706Z,16.13
2023-09-08T01:59:20.638Z,14.27
2023-09-08T02:01:47.737Z,12.13
2023-09-08T02:04:14.786Z,13.70
2023-09-08T02:06:42.134Z,13.48
2023-09-08T02:09:13.011Z,14.02
2023-09-08T02:11:40.142Z,13.73
2023-09-08T02:14:08.039Z,14.23
2023-09-08T02:16:35.047Z,12.47
2023-09-08T02:19:02.096Z,12.25
2023-09-08T02:21:29.327Z,12.32
2023-09-08T02:23:56.410Z,13.07
2023-09-08T02:26:23.785Z,13.73
2023-09-08T02:28:50.731Z,13.93
2023-09-08T02:31:19.264Z,12.63
2023-09-08T02:33:46.460Z,15.70
2023-09-08T02:36:13.542Z,12.07
2023-09-08T02:38:41.769Z,13.85
2023-09-08T02:41:09.356Z,13.20
2023-09-08T02:43:36.304Z,11.70
2023-09-08T02:46:04.299Z,13.70
2023-09-08T02:48:32.361Z,15.55
2023-09-08T02:50:59.681Z,14.82
2023-09-08T02:53:29.697Z,13.87
2023-09-08T02:55:57.328Z,15.63
2023-09-08T02:58:24.476Z,13.40
2023-09-08T03:00:53.163Z,13.05
2023-09-08T03:03:20.851Z,13.60
2023-09-08T03:05:48.124Z,12.47
2023-09-08T03:08:15.270Z,12.98
2023-09-08T03:10:43.069Z,12.88
2023-09-08T03:13:09.998Z,14.52
2023-09-08T03:15:37.651Z,13.07
2023-09-08T03:18:04.978Z,12.30
2023-09-08T03:20:32.276Z,14.07
2023-09-08T03:23:00.160Z,11.95
2023-09-08T03:25:27.270Z,13.98
2023-09-08T03:27:54.197Z,13.88
2023-09-08T03:30:21.245Z,11.90
2023-09-08T03:32:48.265Z,13.25
2023-09-08T03:35:15.408Z,12.25
2023-09-08T03:37:43.357Z,12.98
2023-09-08T03:40:10.794Z,12.90
2023-09-08T03:42:37.976Z,12.00
2023-09-08T03:45:05.649Z,14.30
2023-09-08T03:47:32.794Z,13.65
2023-09-08T03:49:59.923Z,12.80
2023-09-08T03:52:27.337Z,14.55
2023-09-08T03:54:54.289Z,14.23
2023-09-08T03:57:21.328Z,12.35
2023-09-08T03:59:48.306Z,12.70
2023-09-08T04:02:15.380Z,15.18
2023-09-08T04:04:42.350Z,13.45
2023-09-08T04:07:09.900Z,14.30
2023-09-08T04:09:36.952Z,14.30
2023-09-08T04:12:04.116Z,12.27
2023-09-08T04:14:32.336Z,15.40
2023-09-08T04:16:59.400Z,11.68
2023-09-08T04:19:27.210Z,14.47
2023-09-08T04:21:54.188Z,11.55
2023-09-08T04:24:21.803Z,13.55
2023-09-08T04:26:48.920Z,14.02
2023-09-08T04:29:16.101Z,12.45
2023-09-08T04:31:43.340Z,11.27
2023-09-08T04:34:10.461Z,11.52
2023-09-08T04:36:37.491Z,13.18
2023-09-08T04:39:04.728Z,13.23
2023-09-08T04:41:31.903Z,12.02
2023-09-08T04:43:59.537Z,12.47
2023-09-08T04:46:26.807Z,13.25
2023-09-08T04:48:54.014Z,10.93
2023-09-08T04:51:23.088Z,13.45
2023-09-08T04:53:50.612Z,10.57
2023-09-08T04:56:17.864Z,11.00
2023-09-08T04:58:45.055Z,11.68
2023-09-08T05:01:13.294Z,11.55
2023-09-08T05:03:40.814Z,10.35
2023-09-08T05:06:08.818Z,11.32
2023-09-08T05:08:36.028Z,11.10
2023-09-08T05:11:03.945Z,10.10
2023-09-08T05:13:32.266Z,11.77
2023-09-08T05:16:12.186Z,11.70
2023-09-08T05:18:43.174Z,12.40
2023-09-08T05:21:10.693Z,11.17
2023-09-08T05:23:37.994Z,11.93
2023-09-08T05:26:05.057Z,11.02
2023-09-08T05:28:32.192Z,11.60
2023-09-08T05:30:59.299Z,12.27
2023-09-08T05:33:26.459Z,10.87
2023-09-08T05:35:53.999Z,11.82
2023-09-08T05:38:21.157Z,12.32
2023-09-08T05:40:48.252Z,10.95
2023-09-08T05:43:15.957Z,11.93
2023-09-08T05:45:43.305Z,11.23
2023-09-08T05:48:10.746Z,11.25
2023-09-08T05:50:38.683Z,10.32
2023-09-08T05:53:07.415Z,11.40
2023-09-08T05:55:34.441Z,11.98
2023-09-08T05:58:01.625Z,9.87
2023-09-08T06:00:28.724Z,10.68
2023-09-08T06:02:56.098Z,10.18
2023-09-08T06:05:23.248Z,11.18
2023-09-08T06:08:01.378Z,12.05
2023-09-08T06:10:34.044Z,12.20
2023-09-08T06:13:02.588Z,12.02
2023-09-08T06:15:30.253Z,10.82
2023-09-08T06:17:57.620Z,12.15
2023-09-08T06:20:26.094Z,11.00
2023-09-08T06:22:53.952Z,10.43
2023-09-08T06:25:21.156Z,9.38
2023-09-08T06:27:48.625Z,9.82
2023-09-08T06:30:17.458Z,9.90
2023-09-08T06:32:44.771Z,13.25
2023-09-08T06:35:12.368Z,9.80
2023-09-08T06:37:40.216Z,10.68
2023-09-08T06:40:08.440Z,10.73
2023-09-08T06:42:35.830Z,10.25
2023-09-08T06:45:14.810Z,10.88
2023-09-08T06:47:41.961Z,9.50
2023-09-08T06:50:09.461Z,9.32
2023-09-08T06:52:36.773Z,11.48
2023-09-08T06:55:04.308Z,10.43
2023-09-08T06:57:31.402Z,11.30
2023-09-08T06:59:58.475Z,8.80
2023-09-08T07:02:25.852Z,10.85
2023-09-08T07:04:53.220Z,10.13
2023-09-08T07:07:21.688Z,11.65
2023-09-08T07:09:49.661Z,10.63
2023-09-08T07:12:16.845Z,10.23
2023-09-08T07:14:44.238Z,9.30
2023-09-08T07:17:11.403Z,9.60
2023-09-08T07:19:38.885Z,9.48
2023-09-08T07:22:07.691Z,12.10
2023-09-08T07:24:34.785Z,12.53
2023-09-08T07:27:02.888Z,13.52
2023-09-08T07:29:30.720Z,12.77
2023-09-08T07:31:57.993Z,10.50
2023-09-08T07:34:25.146Z,13.05
2023-09-08T07:36:52.818Z,9.40
2023-09-08T07:39:20.001Z,13.05
2023-09-08T07:41:47.168Z,10.68
2023-09-08T07:44:14.607Z,11.40
2023-09-08T07:46:41.957Z,9.82
2023-09-08T07:49:08.951Z,10.90
2023-09-08T07:51:35.957Z,13.10
2023-09-08T07:54:04.946Z,10.82
2023-09-08T07:56:32.008Z,9.32
2023-09-08T07:58:59.047Z,10.77
2023-09-08T08:01:26.273Z,9.33
2023-09-08T08:03:53.315Z,11.05
2023-09-08T08:06:20.485Z,10.48
2023-09-08T08:08:47.509Z,11.05
2023-09-08T08:11:18.787Z,9.25
2023-09-08T08:13:47.196Z,11.23
2023-09-08T08:16:14.270Z,10.40
2023-09-08T08:18:41.775Z,10.82
2023-09-08T08:21:09.068Z,10.18
2023-09-08T08:23:37.292Z,10.45
2023-09-08T08:26:04.651Z,9.03
2023-09-08T08:28:31.793Z,9.15
2023-09-08T08:30:59.017Z,9.98
2023-09-08T08:33:27.176Z,9.20
2023-09-08T08:35:55.007Z,8.52
2023-09-08T08:38:22.160Z,10.43
2023-09-08T08:40:49.231Z,8.32
2023-09-08T08:43:16.536Z,7.60
2023-09-08T08:45:45.512Z,8.02
2023-09-08T08:48:15.342Z,9.45
2023-09-08T08:50:44.349Z,8.03
2023-09-08T08:53:13.703Z,10.60
2023-09-08T08:55:41.918Z,10.15
2023-09-08T08:58:09.048Z,9.73
2023-09-08T09:00:40.300Z,10.77
2023-09-08T09:03:15.444Z,11.13
2023-09-08T09:05:47.945Z,12.45
2023-09-08T09:08:18.726Z,12.35
2023-09-08T09:10:45.716Z,11.35
2023-09-08T09:13:12.739Z,12.18
2023-09-08T09:15:39.768Z,8.87
2023-09-08T09:18:09.027Z,10.63
2023-09-08T09:20:36.382Z,17.50
2023-09-08T09:23:04.644Z,13.00
2023-09-08T09:25:32.890Z,10.73
2023-09-08T09:28:02.708Z,10.00
2023-09-08T09:30:52.381Z,11.85
2023-09-08T09:33:19.681Z,9.52
2023-09-08T09:35:49.263Z,11.88
2023-09-08T09:38:16.744Z,12.43
2023-09-08T09:40:43.745Z,11.67
2023-09-08T09:43:12.780Z,9.25
2023-09-08T09:45:41.468Z,9.02
2023-09-08T09:48:10.160Z,8.85
2023-09-08T09:50:41.853Z,11.20
2023-09-08T09:53:12.213Z,13.37
2023-09-08T09:55:41.245Z,8.55
2023-09-08T09:58:11.659Z,8.77
2023-09-08T10:00:41.805Z,10.27
2023-09-08T10:03:09.628Z,10.52
2023-09-08T10:05:38.031Z,8.57
2023-09-08T10:08:05.547Z,10.93
2023-09-08T10:10:33.885Z,10.63
2023-09-08T10:13:06.637Z,8.90
2023-09-08T10:15:34.747Z,9.57
2023-09-08T10:18:06.152Z,9.57
2023-09-08T10:20:34.833Z,9.50
2023-09-08T10:23:23.795Z,9.98
2023-09-08T10:25:55.733Z,11.23
2023-09-08T10:28:27.149Z,11.23
2023-09-08T10:30:54.955Z,9.80
2023-09-08T10:33:25.155Z,9.90
2023-09-08T10:35:53.045Z,11.32
2023-09-08T10:38:27.802Z,10.02
2023-09-08T10:41:15.274Z,11.30
2023-09-08T10:43:44.344Z,12.00
2023-09-08T10:46:22.092Z,9.70
2023-09-08T10:48:49.261Z,10.98
2023-09-08T10:51:18.495Z,12.77
2023-09-08T10:53:49.683Z,10.93
2023-09-08T10:56:18.479Z,10.07
2023-09-08T10:58:51.522Z,9.43
2023-09-08T11:01:28.742Z,11.13
2023-09-08T11:03:56.422Z,10.77
2023-09-08T11:06:23.816Z,11.65
2023-09-08T11:08:56.933Z,9.33
2023-09-08T11:11:24.393Z,9.30
2023-09-08T11:13:51.469Z,7.90
2023-09-08T11:16:23.120Z,9.40
2023-09-08T11:18:52.648Z,8.57
2023-09-08T11:21:20.016Z,9.87
2023-09-08T11:23:47.160Z,10.55
2023-09-08T11:26:14.560Z,9.63
2023-09-08T11:28:43.190Z,8.70
2023-09-08T11:31:13.973Z,10.63
2023-09-08T11:33:42.953Z,9.70
2023-09-08T11:36:16.237Z,11.38
2023-09-08T11:38:46.278Z,9.50
2023-09-08T11:41:13.674Z,9.77
2023-09-08T11:43:41.091Z,9.73
2023-09-08T11:46:08.430Z,10.67
2023-09-08T11:48:36.639Z,11.27
2023-09-08T11:51:04.093Z,11.15
2023-09-08T11:53:33.169Z,11.45
2023-09-08T11:56:00.469Z,10.07
2023-09-08T11:58:27.657Z,9.73
2023-09-08T12:00:55.028Z,11.35
2023-09-08T12:03:22.037Z,9.93
2023-09-08T12:05:53.099Z,9.88
2023-09-08T12:08:20.613Z,10.30
2023-09-08T12:10:47.867Z,9.80
2023-09-08T12:13:22.538Z,12.27
2023-09-08T12:15:49.983Z,13.32
2023-09-08T12:18:17.210Z,9.25
2023-09-08T12:20:45.181Z,10.23
2023-09-08T12:23:20.767Z,9.20
2023-09-08T12:25:52.834Z,9.13
2023-09-08T12:28:23.502Z,9.40
2023-09-08T12:30:51.848Z,9.98
2023-09-08T12:33:21.381Z,8.82
2023-09-08T12:35:49.706Z,8.07
2023-09-08T12:38:16.674Z,8.13
2023-09-08T12:40:43.861Z,11.23
2023-09-08T12:43:22.994Z,9.45
2023-09-08T12:45:55.992Z,10.02
2023-09-08T12:48:23.710Z,8.73
2023-09-08T12:50:51.026Z,9.65
2023-09-08T12:53:19.507Z,9.38
2023-09-08T12:55:47.472Z,12.20
2023-09-08T12:58:14.449Z,11.02
2023-09-08T13:00:41.474Z,10.33
2023-09-08T13:03:08.495Z,8.95
2023-09-08T13:05:35.813Z,9.27
2023-09-08T13:08:02.881Z,10.00
2023-09-08T13:10:29.931Z,10.43
2023-09-08T13:12:56.864Z,14.47
2023-09-08T13:15:25.152Z,8.80
2023-09-08T13:17:52.586Z,11.07
2023-09-08T13:20:20.872Z,8.75
2023-09-08T13:22:47.971Z,10.57
2023-09-08T13:25:15.203Z,8.57
2023-09-08T13:27:45.515Z,8.38
2023-09-08T13:30:14.919Z,9.88
2023-09-08T13:32:42.705Z,9.10
2023-09-08T13:35:09.971Z,10.13
2023-09-08T13:37:39.004Z,10.37
2023-09-08T13:40:07.012Z,13.15
2023-09-08T13:42:34.222Z,11.18
2023-09-08T13:45:01.849Z,9.80
2023-09-08T13:47:29.914Z,9.85
2023-09-08T13:49:59.112Z,8.47
2023-09-08T13:52:29.104Z,11.10
2023-09-08T13:57:30.819Z,9.80
2023-09-08T13:59:58.668Z,9.82
2023-09-08T14:05:02.680Z,10.57
2023-09-08T14:10:06.095Z,10.82
2023-09-08T14:12:43.014Z,14.88
2023-09-08T14:15:10.723Z,12.10
2023-09-08T14:17:37.725Z,9.65
2023-09-08T14:20:06.921Z,10.20
2023-09-08T14:22:34.000Z,9.73
2023-09-08T14:25:00.936Z,9.65
2023-09-08T14:27:27.883Z,10.33
2023-09-08T14:29:56.118Z,9.88
2023-09-08T14:32:23.272Z,11.13
2023-09-08T14:34:50.374Z,9.20
2023-09-08T14:37:17.405Z,11.88
2023-09-08T14:39:44.283Z,9.40
2023-09-08T14:42:11.343Z,10.82
2023-09-08T14:44:38.334Z,10.07
2023-09-08T14:47:05.313Z,10.95
2023-09-08T14:49:32.323Z,9.88
2023-09-08T14:51:59.413Z,11.23
2023-09-08T14:54:27.494Z,8.60
2023-09-08T14:56:55.372Z,9.38
2023-09-08T14:59:22.716Z,10.77
2023-09-08T15:01:52.292Z,10.50
2023-09-08T15:04:19.410Z,10.70
2023-09-08T15:06:46.441Z,12.60
2023-09-08T15:09:13.628Z,9.23
2023-09-08T15:11:40.659Z,9.30
2023-09-08T15:14:07.836Z,8.35
2023-09-08T15:16:34.860Z,11.03
2023-09-08T15:19:01.851Z,9.63
2023-09-08T15:21:31.029Z,9.05
2023-09-08T15:23:58.067Z,10.23
2023-09-08T15:26:25.196Z,9.07
2023-09-08T15:28:53.592Z,9.30
2023-09-08T15:31:20.824Z,9.57
2023-09-08T15:33:48.049Z,9.65
2023-09-08T15:36:16.925Z,8.82
2023-09-08T15:38:44.065Z,9.70
2023-09-08T15:41:12.130Z,9.23
2023-09-08T15:43:40.935Z,8.95
2023-09-08T15:46:09.199Z,9.25
2023-09-08T15:48:37.814Z,9.65
2023-09-08T15:51:05.588Z,10.65
2023-09-08T15:53:35.526Z,11.80
2023-09-08T15:56:02.856Z,23.83
2023-09-08T15:58:29.947Z,10.77
2023-09-08T16:00:57.062Z,10.02
2023-09-08T16:03:24.358Z,10.00
2023-09-08T16:05:51.623Z,10.03
2023-09-08T16:08:18.598Z,9.45
2023-09-08T16:10:47.176Z,11.10
2023-09-08T16:13:14.270Z,9.25
2023-09-08T16:15:41.294Z,11.13
2023-09-08T16:18:10.901Z,10.37
2023-09-08T16:20:41.899Z,11.50
2023-09-08T16:23:10.174Z,14.50
2023-09-08T16:25:37.192Z,10.75
2023-09-08T16:28:04.502Z,9.35
2023-09-08T16:30:31.402Z,9.67
2023-09-08T16:32:58.566Z,11.25
2023-09-08T16:35:26.908Z,11.35
2023-09-08T16:37:53.958Z,10.85
2023-09-08T16:40:23.432Z,12.82
2023-09-08T16:42:50.792Z,10.77
2023-09-08T16:45:17.864Z,14.18
2023-09-08T16:47:44.949Z,13.70
2023-09-08T16:50:12.045Z,11.73
2023-09-08T16:52:39.103Z,11.55
2023-09-08T16:55:12.131Z,10.60
2023-09-08T16:57:42.493Z,16.63
2023-09-08T17:00:09.887Z,11.25
2023-09-08T17:02:38.017Z,12.45
2023-09-08T17:05:05.878Z,12.73
2023-09-08T17:07:33.354Z,11.40
2023-09-08T17:10:00.777Z,11.60
2023-09-08T17:12:28.089Z,14.80
2023-09-08T17:14:55.667Z,14.32
2023-09-08T17:17:22.977Z,13.75
2023-09-08T17:19:49.926Z,17.87
2023-09-08T17:22:16.885Z,11.68
2023-09-08T17:24:43.975Z,11.55
2023-09-08T17:27:11.293Z,12.23
2023-09-08T17:29:38.643Z,11.98
2023-09-08T17:32:06.220Z,12.53
2023-09-08T17:34:33.219Z,10.23
2023-09-08T17:37:03.700Z,11.93
2023-09-08T17:39:30.979Z,15.18
2023-09-08T17:41:57.906Z,13.07
2023-09-08T17:44:25.113Z,13.03
2023-09-08T17:46:52.257Z,14.32
2023-09-08T17:49:19.368Z,11.52
2023-09-08T17:51:46.330Z,14.30
2023-09-08T17:54:13.589Z,13.63
2023-09-08T17:56:40.572Z,12.57
2023-09-08T17:59:07.723Z,12.80
2023-09-08T18:01:37.935Z,13.25
2023-09-08T18:04:05.514Z,11.50
2023-09-08T18:06:32.654Z,12.27
2023-09-08T18:08:59.757Z,13.70
2023-09-08T18:11:26.868Z,12.82
2023-09-08T18:13:53.978Z,13.73
2023-09-08T18:16:20.981Z,12.35
2023-09-08T18:18:48.443Z,11.55
2023-09-08T18:21:15.460Z,12.17
2023-09-08T18:23:42.900Z,11.95
2023-09-08T18:26:10.026Z,11.02
2023-09-08T18:28:37.015Z,13.20
2023-09-08T18:31:04.206Z,11.63
2023-09-08T18:33:31.382Z,12.83
2023-09-08T18:35:58.904Z,12.48
2023-09-08T18:38:26.655Z,15.18
2023-09-08T18:40:53.866Z,13.27
2023-09-08T18:43:21.125Z,14.25
2023-09-08T18:45:48.514Z,13.17
2023-09-08T18:48:15.631Z,13.82
2023-09-08T18:50:43.209Z,12.38
2023-09-08T18:53:11.199Z,11.57
2023-09-08T18:55:38.197Z,12.77
2023-09-08T18:58:06.461Z,13.47
2023-09-08T19:00:33.745Z,13.43
2023-09-08T19:03:04.409Z,12.88
2023-09-08T19:05:31.543Z,14.07
2023-09-08T19:07:58.538Z,13.43
2023-09-08T19:10:25.505Z,13.80
2023-09-08T19:12:52.482Z,14.48
2023-09-08T19:15:19.441Z,13.25
2023-09-08T19:17:46.894Z,12.48
2023-09-08T19:20:14.050Z,14.75
2023-09-08T19:22:41.179Z,13.90
2023-09-08T19:25:09.556Z,13.50
2023-09-08T19:27:37.343Z,15.15
2023-09-08T19:30:07.178Z,12.48
2023-09-08T19:32:34.500Z,13.32
2023-09-08T19:35:01.505Z,13.60
2023-09-08T19:37:28.628Z,13.32
2023-09-08T19:39:55.647Z,12.52
2023-09-08T19:42:22.738Z,14.75
2023-09-08T19:44:49.653Z,13.20
2023-09-08T19:47:16.740Z,15.07
2023-09-08T19:49:43.920Z,14.55
2023-09-08T19:52:15.809Z,13.07
2023-09-08T19:54:42.852Z,14.05
2023-09-08T19:57:10.160Z,14.30
2023-09-08T19:59:37.586Z,14.47
2023-09-08T20:02:04.727Z,15.25
2023-09-08T20:04:31.725Z,13.77
2023-09-08T20:06:58.790Z,11.90
2023-09-08T20:09:26.682Z,15.30
2023-09-08T20:11:54.045Z,16.70
2023-09-08T20:14:21.174Z,14.23
2023-09-08T20:16:48.241Z,14.85
2023-09-08T20:19:15.285Z,16.33
2023-09-08T20:21:42.266Z,14.90
2023-09-08T20:24:09.516Z,13.47
2023-09-08T20:26:36.676Z,17.25
2023-09-08T20:29:03.787Z,14.38
2023-09-08T20:31:31.090Z,13.02
2023-09-08T20:33:58.119Z,14.15
2023-09-08T20:36:25.096Z,14.73
2023-09-08T20:38:52.140Z,13.73
2023-09-08T20:41:19.203Z,13.07
2023-09-08T20:43:47.472Z,15.00
2023-09-08T20:46:14.626Z,17.40
2023-09-08T20:48:41.884Z,15.63
2023-09-08T20:51:10.782Z,15.07
2023-09-08T20:53:40.433Z,14.80
2023-09-08T20:56:11.376Z,13.52
2023-09-08T20:58:40.106Z,14.18
2023-09-08T21:01:07.342Z,15.60
2023-09-08T21:03:36.162Z,14.35
2023-09-08T21:06:03.840Z,14.27
2023-09-08T21:08:33.424Z,13.77
2023-09-08T21:11:00.523Z,14.30
2023-09-08T21:13:27.590Z,13.83
2023-09-08T21:15:54.674Z,15.70
2023-09-08T21:18:21.784Z,14.45
2023-09-08T21:20:49.545Z,14.52
2023-09-08T21:23:18.230Z,17.83
2023-09-08T21:25:45.328Z,14.17
2023-09-08T21:28:12.360Z,15.63
2023-09-08T21:30:39.497Z,14.70
2023-09-08T21:33:07.025Z,15.30
2023-09-08T21:35:34.189Z,17.25
2023-09-08T21:38:01.136Z,12.47
2023-09-08T21:40:28.225Z,15.60
2023-09-08T21:42:55.314Z,16.40
2023-09-08T21:45:22.326Z,13.77
2023-09-08T21:47:51.461Z,15.27
2023-09-08T21:50:19.172Z,13.17
2023-09-08T21:52:46.575Z,14.98
2023-09-08T21:55:14.291Z,13.75
2023-09-08T21:57:41.613Z,14.77
2023-09-08T22:00:12.539Z,15.73
2023-09-08T22:02:39.834Z,14.03
2023-09-08T22:05:07.318Z,15.13
2023-09-08T22:07:34.609Z,14.93
2023-09-08T22:10:01.725Z,14.73
2023-09-08T22:12:28.831Z,14.18
2023-09-08T22:14:56.735Z,15.33
2023-09-08T22:17:24.006Z,15.07
2023-09-08T22:19:54.030Z,16.15
2023-09-08T22:22:21.062Z,14.93
2023-09-08T22:24:48.085Z,16.58
2023-09-08T22:27:15.751Z,16.10
2023-09-08T22:29:42.710Z,15.98
2023-09-08T22:32:09.754Z,16.73
2023-09-08T22:34:36.815Z,14.75
2023-09-08T22:37:04.268Z,15.88
2023-09-08T22:39:31.254Z,14.33
2023-09-08T22:41:58.255Z,16.80
2023-09-08T22:44:25.181Z,17.15
2023-09-08T22:46:52.191Z,15.13
2023-09-08T22:49:19.151Z,16.50
2023-09-08T22:51:46.113Z,16.47
2023-09-08T22:54:13.109Z,17.52
2023-09-08T22:56:40.202Z,16.50
2023-09-08T22:59:07.137Z,16.83
2023-09-08T23:01:34.288Z,17.98
2023-09-08T23:04:01.482Z,20.47
2023-09-08T23:06:28.531Z,17.58
2023-09-08T23:08:55.516Z,15.48
2023-09-08T23:11:22.482Z,15.90
2023-09-08T23:13:49.577Z,17.55
2023-09-08T23:16:16.584Z,15.00
2023-09-08T23:18:43.564Z,15.68
2023-09-08T23:21:10.640Z,16.40
2023-09-08T23:23:37.824Z,15.30
2023-09-08T23:26:05.137Z,20.58
2023-09-08T23:28:32.326Z,16.63
2023-09-08T23:30:59.504Z,16.45
2023-09-08T23:33:26.627Z,17.50
2023-09-08T23:35:53.711Z,19.55
2023-09-08T23:38:20.772Z,17.08
2023-09-08T23:40:48.609Z,15.07
2023-09-08T23:43:15.784Z,16.50
2023-09-08T23:45:46.846Z,15.80
2023-09-08T23:48:14.054Z,16.65
2023-09-08T23:50:50.509Z,16.98
2023-09-08T23:53:17.953Z,16.63
2023-09-08T23:55:45.397Z,18.90
2023-09-08T23:58:12.574Z,16.02
